logo
Rechercher aéroport 
image banner adimage banner adimage banner ad
image banner ad

7CA3 - Mercy Medical Center

Situé à Redding, United States

ICAO - 7CA3, IATA -

Données fournies par Airmate  

Information générale

Coordonnées: N40°34'20" W122°23'48"
Élévation : 715 feet MSL.
Variation magnétique : 17° East
Voir autres Aéroports à California

Données opérationnelles

Special qualification required
Heure actuelle UTC:
Heure actuelle locale:
Météo à : KRDD - Redding Muni ( 11 km )
METAR: KRDD 040253Z 00000KT 9SM FEW043 SCT060 OVC075 08/06 A3024 RMK AO2 SLP240 T00780061 55000
TAF: KRDD 062322Z 0700/0724 36008KT P6SM SCT250 FM070300 35003KT P6SM SCT250
Voir NOTAMs / SUP AIP / TFR affectant cet aéroport [VIEW]
Fréquences de communication: [VIEW]

Pistes:

Coordonnées de l'aéroport

Adresse: Redding United States

Vue satellite de 7CA3